EGLCEHRD

Guest
Details From EGLC - London City
To EHRD - Rotterdam
Flight Number -
Tags Generated
Created
Modified
Stats Distance 165 nm / 306 km
Max Altitude 0 ft / 0 m
Waypoints 2
Social Downloads 4
Likes 0
Share VATSIM

Download

Looking for another format? Having issues loading an existing format? Contact us
Advertisement - Login to hide

Notes

Generated

Route

EGLC EHRD

ID Type Via Altitude Latitude Longitude Leg Dist Tot Dist Heading (true) Name
O EGLC APT - 0 ft / 0 m 51.50558˚ 0.04414˚ - 0 nm - -
O EHRD APT - 0 ft / 0 m 51.95209˚ 4.42824˚ 165 nm 165 nm 79° / 82° -

Altitude Profile

Advertisement - Login to hide

Weather


0- 5 10 15 20 25 30 35+ Temperature / ° C

Clouds and Precipitation
Forecast for 2017-12-14 12:00 UTC. Updated an hour ago

Ground ~20,000 ft ~40,000 ft Winds

EGLC

Details ICAO EGLC (LCY)
Name London City
Region United Kingdom
Timezone Europe/London (UTC+0.0)
Stats Elevation 19 ft / 6 m (AMSL)
Location 51.505231° 0.055175°
Runways 1
Magnetic Variation 0.384° W

METAR

EGLC 140820Z AUTO 24010KT 9999 FEW038 05/01 Q0993

Decode

TAF

Not found

Departure Runways

ID Width Length Bearing (true) Bearing (mag) Surface Threshold Offset Overrun Length
09 98 ft / 30 m 4,931 ft / 1,503 m 92.89° 93.27° Concrete 322 ft / 98 m 164 ft / 50 m
27 98 ft / 30 m 4,931 ft / 1,503 m 272.91° 273.29° Concrete 243 ft / 74 m 279 ft / 85 m

EHRD

Details ICAO EHRD (RTM)
Name Rotterdam The Hague
Region Netherlands
Timezone Europe/Amsterdam (UTC+1.0)
Stats Elevation -15 ft / -5 m (AMSL)
Location 51.957468° 4.441662°
Runways 1
Magnetic Variation 1.047° E

METAR

EHRD 140755Z AUTO 24018G31KT 210V270 3600 +DZRA SCT015CB BKN018 BKN022 04/02 Q0990 TEMPO 27020G30KT 6000 SHRASNGS SCT020CB

Decode

TAF

TAF EHRD 140521Z 1406/1512 26016KT 9999 SCT020 TEMPO 1406/1415 27020G30KT 4500 SHRASNGS SCT018CB BKN020 BECMG 1413/1416 21010KT PROB40 TEMPO 1415/1512 24013G23KT 4500 SHRASNGS SCT018CB BKN020 BECMG 1418/1421 6000 BKN012 TEMPO 1421/1509 2000 BR BKN005

Decode

Destination Runways

ID Width Length Bearing (true) Bearing (mag) Surface Threshold Offset Overrun Length
06 148 ft / 45 m 7,201 ft / 2,195 m 56.93° 55.88° Asphalt 656 ft / 200 m 0 ft / 0 m
24 148 ft / 45 m 7,201 ft / 2,195 m 236.95° 235.90° Asphalt 656 ft / 200 m 0 ft / 0 m

Approach Navaids

Runway Type Ident Frequency Range Bearing (true) Bearing (mag) Slope Elevation
06 Localiser ROS 110.90 MHz 18 nm / 33 km 56.94° 55.90° - -15 ft / -5 m (AMSL)
06 Glidescope ROS 110.90 MHz 15 nm / 28 km 56.94° 55.90° 3.00° -15 ft / -5 m (AMSL)
06 DME ROS 110.90 MHz 18 nm / 33 km - - - -15 ft / -5 m (AMSL)
24 Localiser RSV 110.90 MHz 18 nm / 33 km 236.94° 235.90° - -15 ft / -5 m (AMSL)
24 Glidescope RSV 110.90 MHz 15 nm / 28 km 236.94° 235.90° 3.00° -15 ft / -5 m (AMSL)
24 DME RSV 110.90 MHz 18 nm / 33 km - - - -15 ft / -5 m (AMSL)

Popular Alternatives